Terminal Aerodrome Forecast
Issued by NWS Boise, ID

Home | Current Version | Previous Version | Text Only | Print | Product List | Glossary On
Versions: 1 2 3 4 5 6 7 8 9 10 11 12 13 14 15 16 17 18 19 20 21 22 23 24 25 26 27 28 29 30 31 32 33 34 35 36 37 38 39 40 41 42 43 44 45 46 47
000
FTUS45 KBOI 261120
TAFBOI
TAF
KBOI 261120Z 2612/2712 00000KT 4SM BR VCFG SCT010
      TEMPO 2612/2615 1SM BR BKN005
     FM261900 VRB03KT 6SM HZ SCT015
     FM270900 VRB03KT 3SM BR BKN006=

USA.gov is the U.S. government's official web portal to all federal, state and local government web resources and services.